sensor_id;sensor_type;location;lat;lon;timestamp;P1;durP1;ratioP1;P2;durP2;ratioP2
76626;SDS011;65519;53.230;10.390;2023-05-10T00:00:07;8.15;;;5.22;;
76626;SDS011;65519;53.230;10.390;2023-05-10T00:02:34;6.93;;;4.40;;
76626;SDS011;65519;53.230;10.390;2023-05-10T00:04:59;8.38;;;4.63;;
76626;SDS011;65519;53.230;10.390;2023-05-10T00:07:25;6.80;;;4.60;;
76626;SDS011;65519;53.230;10.390;2023-05-10T00:09:50;9.00;;;5.85;;
76626;SDS011;65519;53.230;10.390;2023-05-10T00:12:16;9.48;;;5.10;;
76626;SDS011;65519;53.230;10.390;2023-05-10T00:14:41;8.20;;;4.60;;
76626;SDS011;65519;53.230;10.390;2023-05-10T00:17:07;10.02;;;5.10;;
76626;SDS011;65519;53.230;10.390;2023-05-10T00:19:32;8.23;;;4.95;;
76626;SDS011;65519;53.230;10.390;2023-05-10T00:21:58;10.27;;;4.93;;
76626;SDS011;65519;53.230;10.390;2023-05-10T00:24:23;9.05;;;4.53;;
76626;SDS011;65519;53.230;10.390;2023-05-10T00:26:48;10.50;;;5.50;;
76626;SDS011;65519;53.230;10.390;2023-05-10T00:29:14;7.50;;;4.80;;
76626;SDS011;65519;53.230;10.390;2023-05-10T00:31:39;7.95;;;4.55;;
76626;SDS011;65519;53.230;10.390;2023-05-10T00:34:05;7.20;;;4.53;;
76626;SDS011;65519;53.230;10.390;2023-05-10T00:36:30;7.85;;;4.82;;
76626;SDS011;65519;53.230;10.390;2023-05-10T00:38:56;6.75;;;4.75;;
76626;SDS011;65519;53.230;10.390;2023-05-10T00:41:21;8.75;;;4.90;;
76626;SDS011;65519;53.230;10.390;2023-05-10T00:43:47;13.25;;;4.65;;
76626;SDS011;65519;53.230;10.390;2023-05-10T00:46:14;8.10;;;4.72;;
76626;SDS011;65519;53.230;10.390;2023-05-10T00:48:40;8.43;;;5.13;;
76626;SDS011;65519;53.230;10.390;2023-05-10T00:51:06;9.80;;;5.30;;
76626;SDS011;65519;53.230;10.390;2023-05-10T00:53:31;8.18;;;4.85;;
76626;SDS011;65519;53.230;10.390;2023-05-10T00:55:58;8.50;;;4.90;;
76626;SDS011;65519;53.230;10.390;2023-05-10T00:58:24;6.47;;;4.85;;
76626;SDS011;65519;53.230;10.390;2023-05-10T01:00:53;8.00;;;5.13;;
76626;SDS011;65519;53.230;10.390;2023-05-10T01:03:21;7.30;;;5.15;;
76626;SDS011;65519;53.230;10.390;2023-05-10T01:05:46;9.05;;;5.30;;
76626;SDS011;65519;53.230;10.390;2023-05-10T01:08:12;8.10;;;4.70;;
76626;SDS011;65519;53.230;10.390;2023-05-10T01:10:37;9.55;;;4.90;;
76626;SDS011;65519;53.230;10.390;2023-05-10T01:13:03;8.75;;;4.68;;
76626;SDS011;65519;53.230;10.390;2023-05-10T01:15:28;9.98;;;5.10;;
76626;SDS011;65519;53.230;10.390;2023-05-10T01:17:55;9.68;;;5.10;;
76626;SDS011;65519;53.230;10.390;2023-05-10T01:20:21;6.38;;;4.18;;
76626;SDS011;65519;53.230;10.390;2023-05-10T01:33:30;6.80;;;5.03;;
76626;SDS011;65519;53.230;10.390;2023-05-10T01:36:08;9.65;;;4.80;;
76626;SDS011;65519;53.230;10.390;2023-05-10T01:38:47;8.68;;;5.22;;
76626;SDS011;65519;53.230;10.390;2023-05-10T01:46:38;8.57;;;5.05;;
76626;SDS011;65519;53.230;10.390;2023-05-10T01:49:08;8.05;;;4.68;;
76626;SDS011;65519;53.230;10.390;2023-05-10T01:51:47;10.90;;;5.30;;
76626;SDS011;65519;53.230;10.390;2023-05-10T01:54:17;10.15;;;5.40;;
76626;SDS011;65519;53.230;10.390;2023-05-10T01:56:45;7.10;;;4.95;;
76626;SDS011;65519;53.230;10.390;2023-05-10T01:59:20;8.52;;;4.63;;
76626;SDS011;65519;53.230;10.390;2023-05-10T02:01:47;7.38;;;4.78;;
76626;SDS011;65519;53.230;10.390;2023-05-10T02:04:14;7.20;;;4.70;;
76626;SDS011;65519;53.230;10.390;2023-05-10T02:06:41;7.05;;;4.60;;
76626;SDS011;65519;53.230;10.390;2023-05-10T02:09:09;6.68;;;4.80;;
76626;SDS011;65519;53.230;10.390;2023-05-10T02:11:37;8.93;;;4.97;;
76626;SDS011;65519;53.230;10.390;2023-05-10T02:16:32;6.80;;;4.78;;
76626;SDS011;65519;53.230;10.390;2023-05-10T02:19:00;8.18;;;4.85;;
76626;SDS011;65519;53.230;10.390;2023-05-10T02:21:27;8.15;;;4.88;;
76626;SDS011;65519;53.230;10.390;2023-05-10T02:23:53;8.70;;;4.72;;
76626;SDS011;65519;53.230;10.390;2023-05-10T02:26:20;7.63;;;4.97;;
76626;SDS011;65519;53.230;10.390;2023-05-10T02:28:48;8.82;;;5.15;;
76626;SDS011;65519;53.230;10.390;2023-05-10T02:31:15;8.18;;;4.82;;
76626;SDS011;65519;53.230;10.390;2023-05-10T02:33:41;11.05;;;5.22;;
76626;SDS011;65519;53.230;10.390;2023-05-10T02:36:08;7.57;;;4.57;;
76626;SDS011;65519;53.230;10.390;2023-05-10T02:38:35;9.07;;;5.30;;
76626;SDS011;65519;53.230;10.390;2023-05-10T02:41:01;9.98;;;4.82;;
76626;SDS011;65519;53.230;10.390;2023-05-10T02:43:29;8.18;;;4.53;;
76626;SDS011;65519;53.230;10.390;2023-05-10T02:45:57;6.65;;;4.47;;
76626;SDS011;65519;53.230;10.390;2023-05-10T02:48:22;10.60;;;4.85;;
76626;SDS011;65519;53.230;10.390;2023-05-10T02:50:48;8.80;;;5.28;;
76626;SDS011;65519;53.230;10.390;2023-05-10T02:53:25;11.07;;;5.10;;
76626;SDS011;65519;53.230;10.390;2023-05-10T02:55:58;8.98;;;4.82;;
76626;SDS011;65519;53.230;10.390;2023-05-10T02:58:26;9.75;;;5.15;;
76626;SDS011;65519;53.230;10.390;2023-05-10T03:00:51;8.45;;;5.47;;
76626;SDS011;65519;53.230;10.390;2023-05-10T03:03:17;10.15;;;5.35;;
76626;SDS011;65519;53.230;10.390;2023-05-10T03:05:42;7.43;;;4.65;;
76626;SDS011;65519;53.230;10.390;2023-05-10T03:08:08;10.07;;;5.63;;
76626;SDS011;65519;53.230;10.390;2023-05-10T03:10:36;8.90;;;4.82;;
76626;SDS011;65519;53.230;10.390;2023-05-10T03:13:16;9.10;;;5.13;;
76626;SDS011;65519;53.230;10.390;2023-05-10T03:16:15;8.57;;;4.82;;
76626;SDS011;65519;53.230;10.390;2023-05-10T03:18:50;16.45;;;4.75;;
76626;SDS011;65519;53.230;10.390;2023-05-10T03:21:22;8.20;;;5.43;;
76626;SDS011;65519;53.230;10.390;2023-05-10T03:23:51;9.55;;;5.57;;
76626;SDS011;65519;53.230;10.390;2023-05-10T03:26:24;10.20;;;5.00;;
76626;SDS011;65519;53.230;10.390;2023-05-10T03:28:51;7.93;;;4.93;;
76626;SDS011;65519;53.230;10.390;2023-05-10T03:31:17;7.97;;;5.22;;
76626;SDS011;65519;53.230;10.390;2023-05-10T03:33:49;10.52;;;6.15;;
76626;SDS011;65519;53.230;10.390;2023-05-10T03:36:16;9.25;;;5.50;;
76626;SDS011;65519;53.230;10.390;2023-05-10T03:38:42;8.05;;;4.70;;
76626;SDS011;65519;53.230;10.390;2023-05-10T03:41:08;8.10;;;4.57;;
76626;SDS011;65519;53.230;10.390;2023-05-10T03:43:33;15.07;;;5.75;;
76626;SDS011;65519;53.230;10.390;2023-05-10T03:46:01;8.90;;;5.35;;
76626;SDS011;65519;53.230;10.390;2023-05-10T03:48:27;7.60;;;5.82;;
76626;SDS011;65519;53.230;10.390;2023-05-10T03:50:52;6.75;;;5.10;;
76626;SDS011;65519;53.230;10.390;2023-05-10T03:53:17;13.40;;;6.72;;
76626;SDS011;65519;53.230;10.390;2023-05-10T03:55:43;18.45;;;7.90;;
76626;SDS011;65519;53.230;10.390;2023-05-10T03:58:10;8.43;;;5.30;;
76626;SDS011;65519;53.230;10.390;2023-05-10T04:00:36;8.35;;;5.43;;
76626;SDS011;65519;53.230;10.390;2023-05-10T04:03:02;10.60;;;5.35;;
76626;SDS011;65519;53.230;10.390;2023-05-10T04:05:27;8.55;;;5.10;;
76626;SDS011;65519;53.230;10.390;2023-05-10T04:07:53;11.55;;;6.10;;
76626;SDS011;65519;53.230;10.390;2023-05-10T04:10:18;8.48;;;4.80;;
76626;SDS011;65519;53.230;10.390;2023-05-10T04:12:43;11.02;;;6.10;;
76626;SDS011;65519;53.230;10.390;2023-05-10T04:15:09;13.32;;;6.25;;
76626;SDS011;65519;53.230;10.390;2023-05-10T04:17:34;10.05;;;5.50;;
76626;SDS011;65519;53.230;10.390;2023-05-10T04:20:00;9.65;;;5.30;;
76626;SDS011;65519;53.230;10.390;2023-05-10T04:22:25;8.48;;;5.05;;
76626;SDS011;65519;53.230;10.390;2023-05-10T04:24:50;8.77;;;5.20;;
76626;SDS011;65519;53.230;10.390;2023-05-10T04:27:16;11.27;;;5.03;;
76626;SDS011;65519;53.230;10.390;2023-05-10T04:29:41;9.05;;;5.22;;
76626;SDS011;65519;53.230;10.390;2023-05-10T04:32:07;9.57;;;5.18;;
76626;SDS011;65519;53.230;10.390;2023-05-10T04:34:32;8.98;;;5.05;;
76626;SDS011;65519;53.230;10.390;2023-05-10T04:36:59;13.77;;;7.70;;
76626;SDS011;65519;53.230;10.390;2023-05-10T04:39:24;9.13;;;4.95;;
76626;SDS011;65519;53.230;10.390;2023-05-10T04:41:50;8.52;;;5.03;;
76626;SDS011;65519;53.230;10.390;2023-05-10T04:44:15;9.80;;;5.55;;
76626;SDS011;65519;53.230;10.390;2023-05-10T04:46:40;29.33;;;13.77;;
76626;SDS011;65519;53.230;10.390;2023-05-10T04:49:06;16.17;;;6.80;;
76626;SDS011;65519;53.230;10.390;2023-05-10T04:51:31;12.05;;;7.10;;
76626;SDS011;65519;53.230;10.390;2023-05-10T04:53:57;25.83;;;12.02;;
76626;SDS011;65519;53.230;10.390;2023-05-10T04:56:22;19.45;;;10.10;;
76626;SDS011;65519;53.230;10.390;2023-05-10T04:58:47;10.13;;;6.43;;
76626;SDS011;65519;53.230;10.390;2023-05-10T05:01:13;13.90;;;7.03;;
76626;SDS011;65519;53.230;10.390;2023-05-10T05:03:38;10.43;;;6.13;;
76626;SDS011;65519;53.230;10.390;2023-05-10T05:06:04;10.52;;;4.95;;
76626;SDS011;65519;53.230;10.390;2023-05-10T05:08:29;7.35;;;5.28;;
76626;SDS011;65519;53.230;10.390;2023-05-10T05:10:55;9.30;;;5.05;;
76626;SDS011;65519;53.230;10.390;2023-05-10T05:13:20;8.88;;;5.10;;
76626;SDS011;65519;53.230;10.390;2023-05-10T05:15:46;10.82;;;5.13;;
76626;SDS011;65519;53.230;10.390;2023-05-10T05:18:11;8.32;;;4.65;;
76626;SDS011;65519;53.230;10.390;2023-05-10T05:20:36;10.13;;;5.18;;
76626;SDS011;65519;53.230;10.390;2023-05-10T05:23:02;7.10;;;4.97;;
76626;SDS011;65519;53.230;10.390;2023-05-10T05:25:28;7.82;;;5.03;;
76626;SDS011;65519;53.230;10.390;2023-05-10T05:27:53;8.45;;;5.13;;
76626;SDS011;65519;53.230;10.390;2023-05-10T05:30:19;17.20;;;8.38;;
76626;SDS011;65519;53.230;10.390;2023-05-10T05:32:44;13.88;;;8.25;;
76626;SDS011;65519;53.230;10.390;2023-05-10T05:35:11;29.10;;;12.73;;
76626;SDS011;65519;53.230;10.390;2023-05-10T05:37:37;15.68;;;7.47;;
76626;SDS011;65519;53.230;10.390;2023-05-10T05:40:03;39.85;;;17.83;;
76626;SDS011;65519;53.230;10.390;2023-05-10T05:42:29;10.13;;;5.78;;
76626;SDS011;65519;53.230;10.390;2023-05-10T05:44:56;7.35;;;4.55;;
76626;SDS011;65519;53.230;10.390;2023-05-10T05:47:21;8.48;;;5.20;;
76626;SDS011;65519;53.230;10.390;2023-05-10T05:49:46;9.17;;;4.83;;
76626;SDS011;65519;53.230;10.390;2023-05-10T05:52:12;7.95;;;4.57;;
76626;SDS011;65519;53.230;10.390;2023-05-10T05:54:37;8.48;;;4.70;;
76626;SDS011;65519;53.230;10.390;2023-05-10T05:57:03;14.18;;;6.03;;
76626;SDS011;65519;53.230;10.390;2023-05-10T05:59:28;15.52;;;7.38;;
76626;SDS011;65519;53.230;10.390;2023-05-10T06:01:54;9.90;;;5.32;;
76626;SDS011;65519;53.230;10.390;2023-05-10T06:04:19;8.98;;;5.07;;
76626;SDS011;65519;53.230;10.390;2023-05-10T06:06:45;8.80;;;5.35;;
76626;SDS011;65519;53.230;10.390;2023-05-10T06:09:10;8.13;;;5.03;;
76626;SDS011;65519;53.230;10.390;2023-05-10T06:11:36;7.13;;;4.63;;
76626;SDS011;65519;53.230;10.390;2023-05-10T06:14:02;8.93;;;5.07;;
76626;SDS011;65519;53.230;10.390;2023-05-10T06:16:32;9.13;;;5.45;;
76626;SDS011;65519;53.230;10.390;2023-05-10T06:19:01;10.13;;;4.85;;
76626;SDS011;65519;53.230;10.390;2023-05-10T06:21:27;11.38;;;5.95;;
76626;SDS011;65519;53.230;10.390;2023-05-10T06:23:52;9.60;;;5.63;;
76626;SDS011;65519;53.230;10.390;2023-05-10T06:26:18;10.05;;;5.22;;
76626;SDS011;65519;53.230;10.390;2023-05-10T06:28:43;9.27;;;5.45;;
76626;SDS011;65519;53.230;10.390;2023-05-10T06:31:08;8.25;;;5.13;;
76626;SDS011;65519;53.230;10.390;2023-05-10T06:33:36;8.48;;;5.30;;
76626;SDS011;65519;53.230;10.390;2023-05-10T06:36:01;8.48;;;5.32;;
76626;SDS011;65519;53.230;10.390;2023-05-10T06:38:27;8.43;;;4.90;;
76626;SDS011;65519;53.230;10.390;2023-05-10T06:40:52;6.57;;;4.40;;
76626;SDS011;65519;53.230;10.390;2023-05-10T06:43:17;9.68;;;5.18;;
76626;SDS011;65519;53.230;10.390;2023-05-10T06:45:43;7.80;;;4.78;;
76626;SDS011;65519;53.230;10.390;2023-05-10T06:48:08;9.48;;;5.35;;
76626;SDS011;65519;53.230;10.390;2023-05-10T06:50:34;8.88;;;4.95;;
76626;SDS011;65519;53.230;10.390;2023-05-10T06:52:59;11.77;;;7.15;;
76626;SDS011;65519;53.230;10.390;2023-05-10T06:55:26;9.10;;;4.90;;
76626;SDS011;65519;53.230;10.390;2023-05-10T06:57:52;16.95;;;8.68;;
76626;SDS011;65519;53.230;10.390;2023-05-10T07:00:18;12.13;;;6.57;;
76626;SDS011;65519;53.230;10.390;2023-05-10T07:02:44;12.23;;;5.57;;
76626;SDS011;65519;53.230;10.390;2023-05-10T07:05:09;7.90;;;4.70;;
76626;SDS011;65519;53.230;10.390;2023-05-10T07:07:34;8.32;;;5.28;;
76626;SDS011;65519;53.230;10.390;2023-05-10T07:10:00;7.38;;;5.07;;
76626;SDS011;65519;53.230;10.390;2023-05-10T07:12:25;7.45;;;4.72;;
76626;SDS011;65519;53.230;10.390;2023-05-10T07:14:51;9.38;;;5.38;;
76626;SDS011;65519;53.230;10.390;2023-05-10T07:17:16;33.95;;;14.05;;
76626;SDS011;65519;53.230;10.390;2023-05-10T07:19:42;15.55;;;7.90;;
76626;SDS011;65519;53.230;10.390;2023-05-10T07:22:07;8.52;;;5.30;;
76626;SDS011;65519;53.230;10.390;2023-05-10T07:24:33;6.78;;;4.68;;
76626;SDS011;65519;53.230;10.390;2023-05-10T07:26:58;9.10;;;5.20;;
76626;SDS011;65519;53.230;10.390;2023-05-10T07:29:24;8.00;;;5.15;;
76626;SDS011;65519;53.230;10.390;2023-05-10T07:31:49;8.85;;;4.85;;
76626;SDS011;65519;53.230;10.390;2023-05-10T07:34:15;8.50;;;5.10;;
76626;SDS011;65519;53.230;10.390;2023-05-10T07:36:40;7.95;;;4.80;;
76626;SDS011;65519;53.230;10.390;2023-05-10T07:39:06;7.32;;;4.80;;
76626;SDS011;65519;53.230;10.390;2023-05-10T07:41:31;8.70;;;4.88;;
76626;SDS011;65519;53.230;10.390;2023-05-10T07:43:57;9.60;;;5.10;;
76626;SDS011;65519;53.230;10.390;2023-05-10T07:46:23;7.22;;;4.63;;
76626;SDS011;65519;53.230;10.390;2023-05-10T07:48:48;14.07;;;5.50;;
76626;SDS011;65519;53.230;10.390;2023-05-10T07:51:14;7.10;;;4.70;;
76626;SDS011;65519;53.230;10.390;2023-05-10T07:53:39;10.60;;;5.43;;
76626;SDS011;65519;53.230;10.390;2023-05-10T07:58:54;7.70;;;4.68;;
76626;SDS011;65519;53.230;10.390;2023-05-10T08:01:21;12.30;;;5.28;;
76626;SDS011;65519;53.230;10.390;2023-05-10T08:03:46;7.78;;;4.82;;
76626;SDS011;65519;53.230;10.390;2023-05-10T08:06:12;10.07;;;6.07;;
76626;SDS011;65519;53.230;10.390;2023-05-10T08:08:37;8.75;;;5.35;;
76626;SDS011;65519;53.230;10.390;2023-05-10T08:11:03;9.00;;;4.78;;
76626;SDS011;65519;53.230;10.390;2023-05-10T08:13:29;9.32;;;4.95;;
76626;SDS011;65519;53.230;10.390;2023-05-10T08:15:54;10.88;;;6.15;;
76626;SDS011;65519;53.230;10.390;2023-05-10T08:18:20;9.75;;;4.68;;
76626;SDS011;65519;53.230;10.390;2023-05-10T08:20:45;9.55;;;6.07;;
76626;SDS011;65519;53.230;10.390;2023-05-10T08:23:14;7.05;;;5.05;;
76626;SDS011;65519;53.230;10.390;2023-05-10T08:25:39;8.38;;;4.75;;
76626;SDS011;65519;53.230;10.390;2023-05-10T08:28:05;8.07;;;4.93;;
76626;SDS011;65519;53.230;10.390;2023-05-10T08:30:30;7.60;;;5.43;;
76626;SDS011;65519;53.230;10.390;2023-05-10T08:32:56;8.90;;;5.32;;
76626;SDS011;65519;53.230;10.390;2023-05-10T08:35:21;9.88;;;5.82;;
76626;SDS011;65519;53.230;10.390;2023-05-10T08:37:47;8.32;;;5.07;;
76626;SDS011;65519;53.230;10.390;2023-05-10T08:40:12;11.15;;;5.63;;
76626;SDS011;65519;53.230;10.390;2023-05-10T08:42:40;6.78;;;4.82;;
76626;SDS011;65519;53.230;10.390;2023-05-10T08:45:08;10.68;;;5.90;;
76626;SDS011;65519;53.230;10.390;2023-05-10T08:47:35;12.65;;;6.28;;
76626;SDS011;65519;53.230;10.390;2023-05-10T08:50:03;9.45;;;5.03;;
76626;SDS011;65519;53.230;10.390;2023-05-10T08:52:29;9.45;;;5.65;;
76626;SDS011;65519;53.230;10.390;2023-05-10T08:54:55;7.95;;;5.68;;
76626;SDS011;65519;53.230;10.390;2023-05-10T08:57:21;12.50;;;6.07;;
76626;SDS011;65519;53.230;10.390;2023-05-10T08:59:47;10.45;;;5.72;;
76626;SDS011;65519;53.230;10.390;2023-05-10T09:02:12;8.38;;;6.00;;
76626;SDS011;65519;53.230;10.390;2023-05-10T09:04:38;10.85;;;6.10;;
76626;SDS011;65519;53.230;10.390;2023-05-10T09:07:04;9.02;;;5.55;;
76626;SDS011;65519;53.230;10.390;2023-05-10T09:09:30;9.77;;;5.55;;
76626;SDS011;65519;53.230;10.390;2023-05-10T09:11:56;9.82;;;5.85;;
76626;SDS011;65519;53.230;10.390;2023-05-10T09:14:23;9.95;;;5.45;;
76626;SDS011;65519;53.230;10.390;2023-05-10T09:19:15;8.85;;;5.05;;
76626;SDS011;65519;53.230;10.390;2023-05-10T09:21:40;12.20;;;5.28;;
76626;SDS011;65519;53.230;10.390;2023-05-10T09:24:06;9.48;;;5.85;;
76626;SDS011;65519;53.230;10.390;2023-05-10T09:26:33;9.50;;;5.45;;
76626;SDS011;65519;53.230;10.390;2023-05-10T09:29:00;9.93;;;5.75;;
76626;SDS011;65519;53.230;10.390;2023-05-10T09:31:43;11.90;;;5.90;;
76626;SDS011;65519;53.230;10.390;2023-05-10T09:34:29;10.77;;;6.18;;
76626;SDS011;65519;53.230;10.390;2023-05-10T09:36:57;8.93;;;5.82;;
76626;SDS011;65519;53.230;10.390;2023-05-10T09:39:32;12.10;;;5.95;;
76626;SDS011;65519;53.230;10.390;2023-05-10T09:41:59;10.90;;;6.43;;
76626;SDS011;65519;53.230;10.390;2023-05-10T09:44:28;9.95;;;5.55;;
76626;SDS011;65519;53.230;10.390;2023-05-10T09:46:54;9.70;;;6.88;;
76626;SDS011;65519;53.230;10.390;2023-05-10T09:49:23;12.07;;;6.55;;
76626;SDS011;65519;53.230;10.390;2023-05-10T09:51:59;10.63;;;6.22;;
76626;SDS011;65519;53.230;10.390;2023-05-10T09:54:26;11.15;;;6.20;;
76626;SDS011;65519;53.230;10.390;2023-05-10T09:56:51;13.18;;;6.20;;
76626;SDS011;65519;53.230;10.390;2023-05-10T09:59:16;11.50;;;7.38;;
76626;SDS011;65519;53.230;10.390;2023-05-10T10:01:44;10.23;;;7.25;;
76626;SDS011;65519;53.230;10.390;2023-05-10T10:04:14;13.27;;;7.38;;
76626;SDS011;65519;53.230;10.390;2023-05-10T10:06:40;10.85;;;7.05;;
76626;SDS011;65519;53.230;10.390;2023-05-10T10:09:06;10.07;;;6.93;;
76626;SDS011;65519;53.230;10.390;2023-05-10T10:11:33;13.35;;;6.68;;
76626;SDS011;65519;53.230;10.390;2023-05-10T10:14:00;12.00;;;7.45;;
76626;SDS011;65519;53.230;10.390;2023-05-10T10:16:26;12.35;;;7.60;;
76626;SDS011;65519;53.230;10.390;2023-05-10T10:18:54;11.07;;;7.00;;
76626;SDS011;65519;53.230;10.390;2023-05-10T10:21:20;13.15;;;7.85;;
76626;SDS011;65519;53.230;10.390;2023-05-10T10:23:46;14.80;;;7.50;;
76626;SDS011;65519;53.230;10.390;2023-05-10T10:26:11;14.85;;;8.20;;
76626;SDS011;65519;53.230;10.390;2023-05-10T10:28:56;17.48;;;8.90;;
76626;SDS011;65519;53.230;10.390;2023-05-10T10:36:45;16.67;;;8.23;;
76626;SDS011;65519;53.230;10.390;2023-05-10T10:39:12;16.20;;;9.48;;
76626;SDS011;65519;53.230;10.390;2023-05-10T10:41:59;16.75;;;8.82;;
76626;SDS011;65519;53.230;10.390;2023-05-10T10:50:02;16.52;;;9.25;;
76626;SDS011;65519;53.230;10.390;2023-05-10T10:57:54;17.17;;;9.77;;
76626;SDS011;65519;53.230;10.390;2023-05-10T11:00:36;17.58;;;9.80;;
76626;SDS011;65519;53.230;10.390;2023-05-10T11:03:03;17.92;;;9.45;;
76626;SDS011;65519;53.230;10.390;2023-05-10T11:05:34;19.45;;;10.75;;
76626;SDS011;65519;53.230;10.390;2023-05-10T11:08:01;21.67;;;10.68;;
76626;SDS011;65519;53.230;10.390;2023-05-10T11:10:51;14.45;;;9.02;;
76626;SDS011;65519;53.230;10.390;2023-05-10T11:13:26;15.80;;;9.02;;
76626;SDS011;65519;53.230;10.390;2023-05-10T11:15:55;17.20;;;9.43;;
76626;SDS011;65519;53.230;10.390;2023-05-10T11:18:27;15.70;;;9.60;;
76626;SDS011;65519;53.230;10.390;2023-05-10T11:21:00;17.25;;;9.60;;
76626;SDS011;65519;53.230;10.390;2023-05-10T11:23:31;16.23;;;9.85;;
76626;SDS011;65519;53.230;10.390;2023-05-10T11:25:58;18.85;;;11.07;;
76626;SDS011;65519;53.230;10.390;2023-05-10T11:28:25;22.38;;;10.63;;
76626;SDS011;65519;53.230;10.390;2023-05-10T11:30:52;22.02;;;10.27;;
76626;SDS011;65519;53.230;10.390;2023-05-10T11:33:17;27.00;;;12.65;;
76626;SDS011;65519;53.230;10.390;2023-05-10T11:35:44;17.13;;;10.70;;
76626;SDS011;65519;53.230;10.390;2023-05-10T11:38:10;20.20;;;11.20;;
76626;SDS011;65519;53.230;10.390;2023-05-10T11:40:37;22.27;;;12.02;;
76626;SDS011;65519;53.230;10.390;2023-05-10T11:43:03;21.05;;;11.95;;
76626;SDS011;65519;53.230;10.390;2023-05-10T11:45:32;22.25;;;11.50;;
76626;SDS011;65519;53.230;10.390;2023-05-10T11:47:58;21.35;;;12.00;;
76626;SDS011;65519;53.230;10.390;2023-05-10T11:50:24;20.90;;;11.60;;
76626;SDS011;65519;53.230;10.390;2023-05-10T11:52:54;22.95;;;11.90;;
76626;SDS011;65519;53.230;10.390;2023-05-10T11:55:21;20.25;;;11.10;;
76626;SDS011;65519;53.230;10.390;2023-05-10T11:57:47;20.92;;;11.70;;
76626;SDS011;65519;53.230;10.390;2023-05-10T12:00:16;21.00;;;11.27;;
76626;SDS011;65519;53.230;10.390;2023-05-10T12:02:41;19.27;;;10.05;;
76626;SDS011;65519;53.230;10.390;2023-05-10T12:05:07;18.77;;;10.25;;
76626;SDS011;65519;53.230;10.390;2023-05-10T12:07:33;19.17;;;10.48;;
76626;SDS011;65519;53.230;10.390;2023-05-10T12:12:39;21.58;;;12.32;;
76626;SDS011;65519;53.230;10.390;2023-05-10T12:15:16;19.20;;;10.25;;
76626;SDS011;65519;53.230;10.390;2023-05-10T12:17:44;18.65;;;9.95;;
76626;SDS011;65519;53.230;10.390;2023-05-10T12:20:14;16.48;;;10.23;;
76626;SDS011;65519;53.230;10.390;2023-05-10T12:22:40;22.25;;;10.27;;
76626;SDS011;65519;53.230;10.390;2023-05-10T12:25:08;18.38;;;11.00;;
76626;SDS011;65519;53.230;10.390;2023-05-10T12:27:35;18.45;;;11.40;;
76626;SDS011;65519;53.230;10.390;2023-05-10T12:30:00;16.88;;;10.27;;
76626;SDS011;65519;53.230;10.390;2023-05-10T12:32:40;18.08;;;11.50;;
76626;SDS011;65519;53.230;10.390;2023-05-10T12:35:06;20.80;;;10.60;;
76626;SDS011;65519;53.230;10.390;2023-05-10T12:37:33;20.65;;;10.57;;
76626;SDS011;65519;53.230;10.390;2023-05-10T12:40:03;18.25;;;10.93;;
76626;SDS011;65519;53.230;10.390;2023-05-10T12:42:30;16.52;;;9.60;;
76626;SDS011;65519;53.230;10.390;2023-05-10T12:44:56;15.48;;;10.00;;
76626;SDS011;65519;53.230;10.390;2023-05-10T12:47:22;17.98;;;10.15;;
76626;SDS011;65519;53.230;10.390;2023-05-10T12:49:47;18.38;;;10.43;;
76626;SDS011;65519;53.230;10.390;2023-05-10T12:52:13;17.63;;;10.65;;
76626;SDS011;65519;53.230;10.390;2023-05-10T12:54:38;17.45;;;9.20;;
76626;SDS011;65519;53.230;10.390;2023-05-10T12:57:03;15.27;;;8.57;;
76626;SDS011;65519;53.230;10.390;2023-05-10T12:59:29;16.17;;;9.68;;
76626;SDS011;65519;53.230;10.390;2023-05-10T13:01:54;14.95;;;9.38;;
76626;SDS011;65519;53.230;10.390;2023-05-10T13:04:20;16.38;;;8.63;;
76626;SDS011;65519;53.230;10.390;2023-05-10T13:06:45;17.07;;;10.07;;
76626;SDS011;65519;53.230;10.390;2023-05-10T13:09:10;18.20;;;10.73;;
76626;SDS011;65519;53.230;10.390;2023-05-10T13:11:36;17.48;;;10.27;;
76626;SDS011;65519;53.230;10.390;2023-05-10T13:14:01;22.90;;;12.30;;
76626;SDS011;65519;53.230;10.390;2023-05-10T13:16:28;19.73;;;11.68;;
76626;SDS011;65519;53.230;10.390;2023-05-10T13:18:53;18.23;;;10.27;;
76626;SDS011;65519;53.230;10.390;2023-05-10T13:21:19;13.90;;;8.73;;
76626;SDS011;65519;53.230;10.390;2023-05-10T13:23:44;14.25;;;8.05;;
76626;SDS011;65519;53.230;10.390;2023-05-10T13:26:09;13.57;;;8.95;;
76626;SDS011;65519;53.230;10.390;2023-05-10T13:28:35;15.05;;;8.60;;
76626;SDS011;65519;53.230;10.390;2023-05-10T13:31:00;13.35;;;7.95;;
76626;SDS011;65519;53.230;10.390;2023-05-10T13:33:26;12.05;;;6.70;;
76626;SDS011;65519;53.230;10.390;2023-05-10T13:35:51;10.70;;;6.27;;
76626;SDS011;65519;53.230;10.390;2023-05-10T13:38:16;10.63;;;6.28;;
76626;SDS011;65519;53.230;10.390;2023-05-10T13:40:42;11.65;;;6.75;;
76626;SDS011;65519;53.230;10.390;2023-05-10T13:43:07;12.23;;;6.85;;
76626;SDS011;65519;53.230;10.390;2023-05-10T13:45:32;10.68;;;5.90;;
76626;SDS011;65519;53.230;10.390;2023-05-10T13:47:58;10.73;;;6.78;;
76626;SDS011;65519;53.230;10.390;2023-05-10T13:50:23;12.52;;;6.93;;
76626;SDS011;65519;53.230;10.390;2023-05-10T13:52:49;11.73;;;6.20;;
76626;SDS011;65519;53.230;10.390;2023-05-10T13:55:14;10.55;;;6.82;;
76626;SDS011;65519;53.230;10.390;2023-05-10T13:57:40;11.15;;;7.25;;
76626;SDS011;65519;53.230;10.390;2023-05-10T14:00:06;10.98;;;7.07;;
76626;SDS011;65519;53.230;10.390;2023-05-10T14:02:31;9.55;;;6.55;;
76626;SDS011;65519;53.230;10.390;2023-05-10T14:04:57;10.23;;;6.28;;
76626;SDS011;65519;53.230;10.390;2023-05-10T14:07:22;10.27;;;5.97;;
76626;SDS011;65519;53.230;10.390;2023-05-10T14:09:47;10.73;;;6.00;;
76626;SDS011;65519;53.230;10.390;2023-05-10T14:12:13;10.50;;;6.30;;
76626;SDS011;65519;53.230;10.390;2023-05-10T14:14:39;10.10;;;5.95;;
76626;SDS011;65519;53.230;10.390;2023-05-10T14:17:05;11.45;;;5.82;;
76626;SDS011;65519;53.230;10.390;2023-05-10T14:19:30;9.68;;;5.97;;
76626;SDS011;65519;53.230;10.390;2023-05-10T14:21:57;9.60;;;5.65;;
76626;SDS011;65519;53.230;10.390;2023-05-10T14:24:22;8.40;;;5.45;;
76626;SDS011;65519;53.230;10.390;2023-05-10T14:26:48;9.27;;;6.05;;
76626;SDS011;65519;53.230;10.390;2023-05-10T14:29:13;7.60;;;4.97;;
76626;SDS011;65519;53.230;10.390;2023-05-10T14:31:39;9.50;;;4.90;;
76626;SDS011;65519;53.230;10.390;2023-05-10T14:34:05;8.65;;;5.45;;
76626;SDS011;65519;53.230;10.390;2023-05-10T14:36:30;7.65;;;5.00;;
76626;SDS011;65519;53.230;10.390;2023-05-10T14:38:56;7.35;;;4.80;;
76626;SDS011;65519;53.230;10.390;2023-05-10T14:41:22;8.02;;;4.85;;
76626;SDS011;65519;53.230;10.390;2023-05-10T14:43:48;7.82;;;4.88;;
76626;SDS011;65519;53.230;10.390;2023-05-10T14:46:13;8.00;;;4.90;;
76626;SDS011;65519;53.230;10.390;2023-05-10T14:48:38;7.30;;;4.63;;
76626;SDS011;65519;53.230;10.390;2023-05-10T14:51:04;7.65;;;4.03;;
76626;SDS011;65519;53.230;10.390;2023-05-10T14:53:29;6.55;;;4.32;;
76626;SDS011;65519;53.230;10.390;2023-05-10T14:55:55;6.45;;;4.25;;
76626;SDS011;65519;53.230;10.390;2023-05-10T14:58:20;6.85;;;4.18;;
76626;SDS011;65519;53.230;10.390;2023-05-10T15:00:46;6.85;;;4.30;;
76626;SDS011;65519;53.230;10.390;2023-05-10T15:03:11;6.43;;;4.00;;
76626;SDS011;65519;53.230;10.390;2023-05-10T15:05:37;5.97;;;4.38;;